sensor_id;sensor_type;location;lat;lon;timestamp;P1;durP1;ratioP1;P2;durP2;ratioP2
31482;SDS011;18103;52.246;8.052;2023-11-21T00:02:13;24.33;;;8.23;;
31482;SDS011;18103;52.246;8.052;2023-11-21T00:04:38;23.30;;;8.33;;
31482;SDS011;18103;52.246;8.052;2023-11-21T00:07:04;25.37;;;10.40;;
31482;SDS011;18103;52.246;8.052;2023-11-21T00:09:31;23.37;;;9.07;;
31482;SDS011;18103;52.246;8.052;2023-11-21T00:11:56;32.50;;;9.17;;
31482;SDS011;18103;52.246;8.052;2023-11-21T00:14:22;21.37;;;9.80;;
31482;SDS011;18103;52.246;8.052;2023-11-21T00:16:47;23.27;;;8.67;;
31482;SDS011;18103;52.246;8.052;2023-11-21T00:19:12;23.77;;;8.50;;
31482;SDS011;18103;52.246;8.052;2023-11-21T00:21:38;33.00;;;9.17;;
31482;SDS011;18103;52.246;8.052;2023-11-21T00:24:09;26.67;;;9.43;;
31482;SDS011;18103;52.246;8.052;2023-11-21T00:26:38;27.80;;;9.23;;
31482;SDS011;18103;52.246;8.052;2023-11-21T00:29:04;27.97;;;9.87;;
31482;SDS011;18103;52.246;8.052;2023-11-21T00:31:33;25.27;;;8.70;;
31482;SDS011;18103;52.246;8.052;2023-11-21T00:34:03;20.83;;;8.60;;
31482;SDS011;18103;52.246;8.052;2023-11-21T00:36:30;25.53;;;9.03;;
31482;SDS011;18103;52.246;8.052;2023-11-21T00:38:56;28.30;;;9.10;;
31482;SDS011;18103;52.246;8.052;2023-11-21T00:41:26;29.17;;;8.70;;
31482;SDS011;18103;52.246;8.052;2023-11-21T00:43:52;28.10;;;9.57;;
31482;SDS011;18103;52.246;8.052;2023-11-21T00:46:20;28.63;;;8.70;;
31482;SDS011;18103;52.246;8.052;2023-11-21T00:48:49;21.57;;;8.57;;
31482;SDS011;18103;52.246;8.052;2023-11-21T00:51:14;25.37;;;9.23;;
31482;SDS011;18103;52.246;8.052;2023-11-21T00:53:40;28.77;;;9.37;;
31482;SDS011;18103;52.246;8.052;2023-11-21T00:56:05;24.83;;;9.40;;
31482;SDS011;18103;52.246;8.052;2023-11-21T00:58:34;29.70;;;9.13;;
31482;SDS011;18103;52.246;8.052;2023-11-21T01:00:59;35.73;;;9.50;;
31482;SDS011;18103;52.246;8.052;2023-11-21T01:03:24;33.63;;;11.60;;
31482;SDS011;18103;52.246;8.052;2023-11-21T01:05:52;38.57;;;10.37;;
31482;SDS011;18103;52.246;8.052;2023-11-21T01:08:18;27.07;;;10.57;;
31482;SDS011;18103;52.246;8.052;2023-11-21T01:10:46;41.00;;;11.40;;
31482;SDS011;18103;52.246;8.052;2023-11-21T01:13:12;36.50;;;10.33;;
31482;SDS011;18103;52.246;8.052;2023-11-21T01:15:40;33.90;;;10.03;;
31482;SDS011;18103;52.246;8.052;2023-11-21T01:18:06;34.70;;;10.57;;
31482;SDS011;18103;52.246;8.052;2023-11-21T01:20:32;33.13;;;11.07;;
31482;SDS011;18103;52.246;8.052;2023-11-21T01:22:57;28.70;;;11.30;;
31482;SDS011;18103;52.246;8.052;2023-11-21T01:25:25;38.40;;;10.50;;
31482;SDS011;18103;52.246;8.052;2023-11-21T01:27:51;44.53;;;11.83;;
31482;SDS011;18103;52.246;8.052;2023-11-21T01:30:19;27.93;;;9.93;;
31482;SDS011;18103;52.246;8.052;2023-11-21T01:32:47;35.53;;;10.13;;
31482;SDS011;18103;52.246;8.052;2023-11-21T01:35:16;32.73;;;10.20;;
31482;SDS011;18103;52.246;8.052;2023-11-21T01:37:41;28.03;;;10.20;;
31482;SDS011;18103;52.246;8.052;2023-11-21T01:40:07;31.60;;;9.53;;
31482;SDS011;18103;52.246;8.052;2023-11-21T01:42:35;26.57;;;9.53;;
31482;SDS011;18103;52.246;8.052;2023-11-21T01:45:01;32.43;;;9.07;;
31482;SDS011;18103;52.246;8.052;2023-11-21T01:47:29;24.53;;;8.23;;
31482;SDS011;18103;52.246;8.052;2023-11-21T01:49:55;29.83;;;9.00;;
31482;SDS011;18103;52.246;8.052;2023-11-21T01:52:21;35.63;;;9.60;;
31482;SDS011;18103;52.246;8.052;2023-11-21T01:54:46;32.27;;;9.47;;
31482;SDS011;18103;52.246;8.052;2023-11-21T01:57:14;31.70;;;9.90;;
31482;SDS011;18103;52.246;8.052;2023-11-21T01:59:43;37.77;;;10.07;;
31482;SDS011;18103;52.246;8.052;2023-11-21T02:02:11;30.80;;;10.90;;
31482;SDS011;18103;52.246;8.052;2023-11-21T02:04:37;31.87;;;10.23;;
31482;SDS011;18103;52.246;8.052;2023-11-21T02:07:03;31.27;;;10.23;;
31482;SDS011;18103;52.246;8.052;2023-11-21T02:09:31;37.67;;;11.40;;
31482;SDS011;18103;52.246;8.052;2023-11-21T02:11:59;28.13;;;9.33;;
31482;SDS011;18103;52.246;8.052;2023-11-21T02:14:25;36.23;;;10.43;;
31482;SDS011;18103;52.246;8.052;2023-11-21T02:16:53;32.57;;;9.80;;
31482;SDS011;18103;52.246;8.052;2023-11-21T02:19:22;27.50;;;9.70;;
31482;SDS011;18103;52.246;8.052;2023-11-21T02:21:50;31.47;;;9.57;;
31482;SDS011;18103;52.246;8.052;2023-11-21T02:24:18;30.77;;;8.83;;
31482;SDS011;18103;52.246;8.052;2023-11-21T02:26:50;31.50;;;10.30;;
31482;SDS011;18103;52.246;8.052;2023-11-21T02:29:18;30.30;;;8.90;;
31482;SDS011;18103;52.246;8.052;2023-11-21T02:31:47;26.73;;;8.77;;
31482;SDS011;18103;52.246;8.052;2023-11-21T02:34:17;22.03;;;7.57;;
31482;SDS011;18103;52.246;8.052;2023-11-21T02:36:45;31.33;;;8.90;;
31482;SDS011;18103;52.246;8.052;2023-11-21T02:39:12;26.33;;;8.30;;
31482;SDS011;18103;52.246;8.052;2023-11-21T02:41:43;33.30;;;9.70;;
31482;SDS011;18103;52.246;8.052;2023-11-21T02:44:09;22.37;;;8.03;;
31482;SDS011;18103;52.246;8.052;2023-11-21T02:46:35;28.77;;;9.47;;
31482;SDS011;18103;52.246;8.052;2023-11-21T02:49:06;30.30;;;9.80;;
31482;SDS011;18103;52.246;8.052;2023-11-21T02:51:35;23.23;;;9.03;;
31482;SDS011;18103;52.246;8.052;2023-11-21T02:54:03;31.87;;;9.83;;
31482;SDS011;18103;52.246;8.052;2023-11-21T02:56:33;38.13;;;9.70;;
31482;SDS011;18103;52.246;8.052;2023-11-21T02:59:02;25.87;;;9.20;;
31482;SDS011;18103;52.246;8.052;2023-11-21T03:01:27;37.97;;;9.97;;
31482;SDS011;18103;52.246;8.052;2023-11-21T03:03:53;34.03;;;9.70;;
31482;SDS011;18103;52.246;8.052;2023-11-21T03:06:20;34.53;;;10.53;;
31482;SDS011;18103;52.246;8.052;2023-11-21T03:08:45;29.70;;;10.30;;
31482;SDS011;18103;52.246;8.052;2023-11-21T03:11:11;35.77;;;10.33;;
31482;SDS011;18103;52.246;8.052;2023-11-21T03:13:40;27.13;;;9.30;;
31482;SDS011;18103;52.246;8.052;2023-11-21T03:16:11;36.00;;;9.97;;
31482;SDS011;18103;52.246;8.052;2023-11-21T03:18:41;31.13;;;9.83;;
31482;SDS011;18103;52.246;8.052;2023-11-21T03:21:12;29.60;;;8.93;;
31482;SDS011;18103;52.246;8.052;2023-11-21T03:23:38;26.47;;;9.43;;
31482;SDS011;18103;52.246;8.052;2023-11-21T03:26:03;28.13;;;8.77;;
31482;SDS011;18103;52.246;8.052;2023-11-21T03:28:29;34.47;;;10.50;;
31482;SDS011;18103;52.246;8.052;2023-11-21T03:30:57;26.77;;;9.80;;
31482;SDS011;18103;52.246;8.052;2023-11-21T03:33:23;33.70;;;11.07;;
31482;SDS011;18103;52.246;8.052;2023-11-21T03:35:50;29.97;;;10.13;;
31482;SDS011;18103;52.246;8.052;2023-11-21T03:38:18;27.73;;;10.57;;
31482;SDS011;18103;52.246;8.052;2023-11-21T03:40:44;32.47;;;9.90;;
31482;SDS011;18103;52.246;8.052;2023-11-21T03:43:09;34.33;;;10.17;;
31482;SDS011;18103;52.246;8.052;2023-11-21T03:45:37;39.00;;;10.50;;
31482;SDS011;18103;52.246;8.052;2023-11-21T03:48:02;38.27;;;11.60;;
31482;SDS011;18103;52.246;8.052;2023-11-21T03:50:28;39.00;;;12.33;;
31482;SDS011;18103;52.246;8.052;2023-11-21T03:52:56;36.43;;;12.03;;
31482;SDS011;18103;52.246;8.052;2023-11-21T03:55:22;39.33;;;12.13;;
31482;SDS011;18103;52.246;8.052;2023-11-21T03:57:49;31.93;;;11.67;;
31482;SDS011;18103;52.246;8.052;2023-11-21T04:00:14;32.60;;;11.47;;
31482;SDS011;18103;52.246;8.052;2023-11-21T04:02:41;27.90;;;11.40;;
31482;SDS011;18103;52.246;8.052;2023-11-21T04:05:09;33.53;;;11.93;;
31482;SDS011;18103;52.246;8.052;2023-11-21T04:07:35;36.97;;;12.43;;
31482;SDS011;18103;52.246;8.052;2023-11-21T04:10:03;32.17;;;11.83;;
31482;SDS011;18103;52.246;8.052;2023-11-21T04:12:34;39.87;;;10.67;;
31482;SDS011;18103;52.246;8.052;2023-11-21T04:15:01;32.10;;;11.63;;
31482;SDS011;18103;52.246;8.052;2023-11-21T04:17:27;29.57;;;10.20;;
31482;SDS011;18103;52.246;8.052;2023-11-21T04:19:52;34.07;;;11.27;;
31482;SDS011;18103;52.246;8.052;2023-11-21T04:22:18;30.67;;;11.33;;
31482;SDS011;18103;52.246;8.052;2023-11-21T04:24:46;32.83;;;12.30;;
31482;SDS011;18103;52.246;8.052;2023-11-21T04:27:16;35.33;;;11.17;;
31482;SDS011;18103;52.246;8.052;2023-11-21T04:29:45;34.43;;;11.10;;
31482;SDS011;18103;52.246;8.052;2023-11-21T04:32:12;36.77;;;10.80;;
31482;SDS011;18103;52.246;8.052;2023-11-21T04:34:38;40.03;;;11.13;;
31482;SDS011;18103;52.246;8.052;2023-11-21T04:37:06;39.10;;;10.80;;
31482;SDS011;18103;52.246;8.052;2023-11-21T04:39:35;35.23;;;10.90;;
31482;SDS011;18103;52.246;8.052;2023-11-21T04:42:01;34.90;;;10.50;;
31482;SDS011;18103;52.246;8.052;2023-11-21T04:44:29;34.40;;;11.37;;
31482;SDS011;18103;52.246;8.052;2023-11-21T04:46:54;32.93;;;11.30;;
31482;SDS011;18103;52.246;8.052;2023-11-21T04:49:22;34.27;;;10.60;;
31482;SDS011;18103;52.246;8.052;2023-11-21T04:51:50;36.47;;;11.77;;
31482;SDS011;18103;52.246;8.052;2023-11-21T04:54:15;34.10;;;11.27;;
31482;SDS011;18103;52.246;8.052;2023-11-21T04:56:43;32.13;;;10.20;;
31482;SDS011;18103;52.246;8.052;2023-11-21T04:59:09;34.43;;;11.53;;
31482;SDS011;18103;52.246;8.052;2023-11-21T05:01:34;24.30;;;9.93;;
31482;SDS011;18103;52.246;8.052;2023-11-21T05:04:01;41.10;;;11.33;;
31482;SDS011;18103;52.246;8.052;2023-11-21T05:06:30;28.63;;;11.33;;
31482;SDS011;18103;52.246;8.052;2023-11-21T05:08:56;33.00;;;10.50;;
31482;SDS011;18103;52.246;8.052;2023-11-21T05:11:25;38.27;;;11.00;;
31482;SDS011;18103;52.246;8.052;2023-11-21T05:13:54;31.03;;;11.13;;
31482;SDS011;18103;52.246;8.052;2023-11-21T05:16:21;32.10;;;11.13;;
31482;SDS011;18103;52.246;8.052;2023-11-21T05:18:47;35.27;;;10.67;;
31482;SDS011;18103;52.246;8.052;2023-11-21T05:21:12;28.13;;;10.57;;
31482;SDS011;18103;52.246;8.052;2023-11-21T05:23:40;38.73;;;13.13;;
31482;SDS011;18103;52.246;8.052;2023-11-21T05:26:05;33.20;;;10.27;;
31482;SDS011;18103;52.246;8.052;2023-11-21T05:28:31;31.70;;;11.30;;
31482;SDS011;18103;52.246;8.052;2023-11-21T05:30:57;32.30;;;10.17;;
31482;SDS011;18103;52.246;8.052;2023-11-21T05:33:27;36.07;;;11.97;;
31482;SDS011;18103;52.246;8.052;2023-11-21T05:35:55;38.40;;;10.73;;
31482;SDS011;18103;52.246;8.052;2023-11-21T05:38:21;30.47;;;10.77;;
31482;SDS011;18103;52.246;8.052;2023-11-21T05:40:49;32.03;;;10.50;;
31482;SDS011;18103;52.246;8.052;2023-11-21T05:43:19;32.07;;;10.63;;
31482;SDS011;18103;52.246;8.052;2023-11-21T05:45:44;29.40;;;10.73;;
31482;SDS011;18103;52.246;8.052;2023-11-21T05:48:10;27.13;;;10.80;;
31482;SDS011;18103;52.246;8.052;2023-11-21T05:50:35;31.07;;;10.13;;
31482;SDS011;18103;52.246;8.052;2023-11-21T05:53:02;30.03;;;11.30;;
31482;SDS011;18103;52.246;8.052;2023-11-21T05:55:28;33.07;;;11.20;;
31482;SDS011;18103;52.246;8.052;2023-11-21T05:57:58;38.50;;;12.17;;
31482;SDS011;18103;52.246;8.052;2023-11-21T06:00:26;36.50;;;12.07;;
31482;SDS011;18103;52.246;8.052;2023-11-21T06:02:53;27.53;;;10.80;;
31482;SDS011;18103;52.246;8.052;2023-11-21T06:05:19;32.80;;;12.00;;
31482;SDS011;18103;52.246;8.052;2023-11-21T06:07:48;32.17;;;11.33;;
31482;SDS011;18103;52.246;8.052;2023-11-21T06:10:14;36.13;;;10.87;;
31482;SDS011;18103;52.246;8.052;2023-11-21T06:12:40;33.03;;;10.80;;
31482;SDS011;18103;52.246;8.052;2023-11-21T06:15:08;45.93;;;12.13;;
31482;SDS011;18103;52.246;8.052;2023-11-21T06:17:40;31.03;;;11.63;;
31482;SDS011;18103;52.246;8.052;2023-11-21T06:20:07;34.67;;;12.40;;
31482;SDS011;18103;52.246;8.052;2023-11-21T06:22:39;30.07;;;11.23;;
31482;SDS011;18103;52.246;8.052;2023-11-21T06:25:06;29.50;;;10.60;;
31482;SDS011;18103;52.246;8.052;2023-11-21T06:27:37;24.23;;;10.00;;
31482;SDS011;18103;52.246;8.052;2023-11-21T06:30:03;32.57;;;10.27;;
31482;SDS011;18103;52.246;8.052;2023-11-21T06:32:34;22.03;;;8.20;;
31482;SDS011;18103;52.246;8.052;2023-11-21T06:35:01;22.23;;;8.80;;
31482;SDS011;18103;52.246;8.052;2023-11-21T06:37:27;18.33;;;8.10;;
31482;SDS011;18103;52.246;8.052;2023-11-21T06:39:53;25.20;;;9.17;;
31482;SDS011;18103;52.246;8.052;2023-11-21T06:42:21;20.50;;;7.17;;
31482;SDS011;18103;52.246;8.052;2023-11-21T06:44:49;17.50;;;8.07;;
31482;SDS011;18103;52.246;8.052;2023-11-21T06:47:19;25.63;;;7.50;;
31482;SDS011;18103;52.246;8.052;2023-11-21T06:49:50;23.73;;;8.47;;
31482;SDS011;18103;52.246;8.052;2023-11-21T06:52:18;15.80;;;6.57;;
31482;SDS011;18103;52.246;8.052;2023-11-21T06:54:44;21.50;;;8.37;;
31482;SDS011;18103;52.246;8.052;2023-11-21T06:57:15;23.07;;;7.77;;
31482;SDS011;18103;52.246;8.052;2023-11-21T06:59:40;14.30;;;6.57;;
31482;SDS011;18103;52.246;8.052;2023-11-21T07:02:06;17.67;;;7.10;;
31482;SDS011;18103;52.246;8.052;2023-11-21T07:04:32;18.87;;;8.13;;
31482;SDS011;18103;52.246;8.052;2023-11-21T07:07:01;17.53;;;7.53;;
31482;SDS011;18103;52.246;8.052;2023-11-21T07:09:27;20.73;;;7.27;;
31482;SDS011;18103;52.246;8.052;2023-11-21T07:11:53;17.30;;;7.23;;
31482;SDS011;18103;52.246;8.052;2023-11-21T07:14:21;16.87;;;6.27;;
31482;SDS011;18103;52.246;8.052;2023-11-21T07:16:47;15.57;;;6.60;;
31482;SDS011;18103;52.246;8.052;2023-11-21T07:19:12;14.57;;;6.10;;
31482;SDS011;18103;52.246;8.052;2023-11-21T07:21:38;20.83;;;7.03;;
31482;SDS011;18103;52.246;8.052;2023-11-21T07:24:09;16.80;;;6.83;;
31482;SDS011;18103;52.246;8.052;2023-11-21T07:26:36;15.27;;;5.97;;
31482;SDS011;18103;52.246;8.052;2023-11-21T07:29:02;15.13;;;6.23;;
31482;SDS011;18103;52.246;8.052;2023-11-21T07:31:28;16.10;;;7.07;;
31482;SDS011;18103;52.246;8.052;2023-11-21T07:33:59;15.70;;;6.93;;
31482;SDS011;18103;52.246;8.052;2023-11-21T07:36:24;13.17;;;6.47;;
31482;SDS011;18103;52.246;8.052;2023-11-21T07:38:53;15.73;;;6.63;;
31482;SDS011;18103;52.246;8.052;2023-11-21T07:41:19;16.87;;;6.47;;
31482;SDS011;18103;52.246;8.052;2023-11-21T07:43:44;12.47;;;5.30;;
31482;SDS011;18103;52.246;8.052;2023-11-21T07:46:13;10.47;;;5.23;;
31482;SDS011;18103;52.246;8.052;2023-11-21T07:48:39;11.20;;;4.30;;
31482;SDS011;18103;52.246;8.052;2023-11-21T07:51:08;11.27;;;5.80;;
31482;SDS011;18103;52.246;8.052;2023-11-21T07:53:38;10.63;;;5.63;;
31482;SDS011;18103;52.246;8.052;2023-11-21T07:56:04;11.80;;;4.80;;
31482;SDS011;18103;52.246;8.052;2023-11-21T07:58:30;11.63;;;4.53;;
31482;SDS011;18103;52.246;8.052;2023-11-21T08:00:58;7.47;;;4.00;;
31482;SDS011;18103;52.246;8.052;2023-11-21T08:03:23;11.63;;;5.67;;
31482;SDS011;18103;52.246;8.052;2023-11-21T08:05:49;11.30;;;4.50;;
31482;SDS011;18103;52.246;8.052;2023-11-21T08:08:14;10.10;;;5.50;;
31482;SDS011;18103;52.246;8.052;2023-11-21T08:10:43;8.97;;;4.23;;
31482;SDS011;18103;52.246;8.052;2023-11-21T08:13:21;7.17;;;4.00;;
31482;SDS011;18103;52.246;8.052;2023-11-21T08:15:56;10.43;;;4.40;;
31482;SDS011;18103;52.246;8.052;2023-11-21T08:18:23;6.47;;;3.63;;
31482;SDS011;18103;52.246;8.052;2023-11-21T08:20:51;11.47;;;4.17;;
31482;SDS011;18103;52.246;8.052;2023-11-21T08:23:16;8.57;;;4.20;;
31482;SDS011;18103;52.246;8.052;2023-11-21T08:25:44;13.63;;;5.00;;
31482;SDS011;18103;52.246;8.052;2023-11-21T08:28:10;9.37;;;4.87;;
31482;SDS011;18103;52.246;8.052;2023-11-21T08:30:36;10.67;;;4.47;;
31482;SDS011;18103;52.246;8.052;2023-11-21T08:33:02;9.77;;;4.60;;
31482;SDS011;18103;52.246;8.052;2023-11-21T08:35:28;14.13;;;5.53;;
31482;SDS011;18103;52.246;8.052;2023-11-21T08:37:57;15.27;;;5.73;;
31482;SDS011;18103;52.246;8.052;2023-11-21T08:40:24;15.67;;;5.87;;
31482;SDS011;18103;52.246;8.052;2023-11-21T08:42:52;14.67;;;5.07;;
31482;SDS011;18103;52.246;8.052;2023-11-21T08:45:18;14.27;;;6.37;;
31482;SDS011;18103;52.246;8.052;2023-11-21T08:47:46;19.73;;;6.83;;
31482;SDS011;18103;52.246;8.052;2023-11-21T08:50:11;10.97;;;5.30;;
31482;SDS011;18103;52.246;8.052;2023-11-21T08:52:37;20.10;;;5.43;;
31482;SDS011;18103;52.246;8.052;2023-11-21T08:55:04;13.70;;;6.87;;
31482;SDS011;18103;52.246;8.052;2023-11-21T08:57:33;12.97;;;6.30;;
31482;SDS011;18103;52.246;8.052;2023-11-21T09:00:06;15.37;;;6.47;;
31482;SDS011;18103;52.246;8.052;2023-11-21T09:02:36;18.53;;;6.90;;
31482;SDS011;18103;52.246;8.052;2023-11-21T09:05:05;19.23;;;6.67;;
31482;SDS011;18103;52.246;8.052;2023-11-21T09:07:32;18.27;;;6.60;;
31482;SDS011;18103;52.246;8.052;2023-11-21T09:10:00;25.83;;;7.57;;
31482;SDS011;18103;52.246;8.052;2023-11-21T09:12:27;16.47;;;7.10;;
31482;SDS011;18103;52.246;8.052;2023-11-21T09:14:53;17.63;;;6.90;;
31482;SDS011;18103;52.246;8.052;2023-11-21T09:17:18;15.37;;;6.83;;
31482;SDS011;18103;52.246;8.052;2023-11-21T09:19:44;20.00;;;7.27;;
31482;SDS011;18103;52.246;8.052;2023-11-21T09:22:12;25.27;;;6.97;;
31482;SDS011;18103;52.246;8.052;2023-11-21T09:24:37;15.97;;;6.03;;
31482;SDS011;18103;52.246;8.052;2023-11-21T09:27:03;15.33;;;6.60;;
31482;SDS011;18103;52.246;8.052;2023-11-21T09:29:30;17.93;;;6.03;;
31482;SDS011;18103;52.246;8.052;2023-11-21T09:31:55;15.17;;;6.77;;
31482;SDS011;18103;52.246;8.052;2023-11-21T09:34:24;9.10;;;5.60;;
31482;SDS011;18103;52.246;8.052;2023-11-21T09:36:52;9.53;;;4.00;;
31482;SDS011;18103;52.246;8.052;2023-11-21T09:39:20;7.60;;;4.27;;
31482;SDS011;18103;52.246;8.052;2023-11-21T09:41:52;8.50;;;4.37;;
31482;SDS011;18103;52.246;8.052;2023-11-21T09:47:17;6.77;;;4.20;;
31482;SDS011;18103;52.246;8.052;2023-11-21T09:49:49;6.80;;;3.67;;
31482;SDS011;18103;52.246;8.052;2023-11-21T09:52:24;8.53;;;4.27;;
31482;SDS011;18103;52.246;8.052;2023-11-21T09:54:53;8.23;;;4.07;;
31482;SDS011;18103;52.246;8.052;2023-11-21T09:57:22;9.33;;;4.60;;
31482;SDS011;18103;52.246;8.052;2023-11-21T09:59:50;7.73;;;3.57;;
31482;SDS011;18103;52.246;8.052;2023-11-21T10:02:20;7.73;;;3.87;;
31482;SDS011;18103;52.246;8.052;2023-11-21T10:04:53;9.80;;;4.47;;
31482;SDS011;18103;52.246;8.052;2023-11-21T10:07:21;7.17;;;4.07;;
31482;SDS011;18103;52.246;8.052;2023-11-21T10:09:47;10.57;;;4.07;;
31482;SDS011;18103;52.246;8.052;2023-11-21T10:12:14;11.77;;;4.40;;
31482;SDS011;18103;52.246;8.052;2023-11-21T10:14:43;9.63;;;4.30;;
31482;SDS011;18103;52.246;8.052;2023-11-21T10:17:14;8.53;;;3.43;;
31482;SDS011;18103;52.246;8.052;2023-11-21T10:19:43;7.47;;;3.77;;
31482;SDS011;18103;52.246;8.052;2023-11-21T10:22:12;5.27;;;3.00;;
31482;SDS011;18103;52.246;8.052;2023-11-21T10:24:42;5.60;;;3.13;;
31482;SDS011;18103;52.246;8.052;2023-11-21T10:27:10;11.23;;;3.20;;
31482;SDS011;18103;52.246;8.052;2023-11-21T10:29:35;6.50;;;3.67;;
31482;SDS011;18103;52.246;8.052;2023-11-21T10:32:03;9.30;;;3.40;;
31482;SDS011;18103;52.246;8.052;2023-11-21T10:34:30;6.53;;;3.60;;
31482;SDS011;18103;52.246;8.052;2023-11-21T10:36:58;7.73;;;3.60;;
31482;SDS011;18103;52.246;8.052;2023-11-21T10:39:28;7.13;;;3.40;;
31482;SDS011;18103;52.246;8.052;2023-11-21T10:41:56;9.00;;;3.40;;
31482;SDS011;18103;52.246;8.052;2023-11-21T10:44:23;4.83;;;3.30;;
31482;SDS011;18103;52.246;8.052;2023-11-21T10:46:50;4.17;;;2.80;;
31482;SDS011;18103;52.246;8.052;2023-11-21T10:49:20;5.03;;;3.17;;
31482;SDS011;18103;52.246;8.052;2023-11-21T10:51:52;6.00;;;2.93;;
31482;SDS011;18103;52.246;8.052;2023-11-21T10:54:23;5.13;;;3.50;;
31482;SDS011;18103;52.246;8.052;2023-11-21T10:56:51;7.10;;;3.60;;
31482;SDS011;18103;52.246;8.052;2023-11-21T10:59:22;7.43;;;4.23;;
31482;SDS011;18103;52.246;8.052;2023-11-21T11:01:51;9.20;;;4.83;;
31482;SDS011;18103;52.246;8.052;2023-11-21T11:04:19;9.10;;;4.13;;
31482;SDS011;18103;52.246;8.052;2023-11-21T11:06:49;8.43;;;4.20;;
31482;SDS011;18103;52.246;8.052;2023-11-21T11:09:19;9.27;;;5.03;;
31482;SDS011;18103;52.246;8.052;2023-11-21T11:11:46;9.33;;;5.43;;
31482;SDS011;18103;52.246;8.052;2023-11-21T11:14:15;6.37;;;4.13;;
31482;SDS011;18103;52.246;8.052;2023-11-21T11:16:41;11.57;;;5.53;;
31482;SDS011;18103;52.246;8.052;2023-11-21T11:19:08;10.53;;;5.17;;
31482;SDS011;18103;52.246;8.052;2023-11-21T11:24:44;8.93;;;4.83;;
31482;SDS011;18103;52.246;8.052;2023-11-21T11:27:36;12.07;;;4.70;;
31482;SDS011;18103;52.246;8.052;2023-11-21T11:30:16;11.27;;;5.53;;
31482;SDS011;18103;52.246;8.052;2023-11-21T11:36:02;9.43;;;5.10;;
31482;SDS011;18103;52.246;8.052;2023-11-21T11:38:33;11.30;;;5.53;;
31482;SDS011;18103;52.246;8.052;2023-11-21T11:41:03;10.63;;;5.43;;
31482;SDS011;18103;52.246;8.052;2023-11-21T11:43:32;11.10;;;5.40;;
31482;SDS011;18103;52.246;8.052;2023-11-21T11:46:09;9.40;;;5.53;;
31482;SDS011;18103;52.246;8.052;2023-11-21T11:48:38;11.87;;;5.33;;
31482;SDS011;18103;52.246;8.052;2023-11-21T11:51:11;11.53;;;5.97;;
31482;SDS011;18103;52.246;8.052;2023-11-21T11:53:40;15.33;;;6.03;;
31482;SDS011;18103;52.246;8.052;2023-11-21T11:56:20;12.10;;;6.40;;
31482;SDS011;18103;52.246;8.052;2023-11-21T11:58:48;10.67;;;6.33;;
31482;SDS011;18103;52.246;8.052;2023-11-21T12:01:16;10.83;;;6.40;;
31482;SDS011;18103;52.246;8.052;2023-11-21T12:03:43;12.10;;;6.27;;
31482;SDS011;18103;52.246;8.052;2023-11-21T12:06:09;14.83;;;6.53;;
31482;SDS011;18103;52.246;8.052;2023-11-21T12:08:37;14.23;;;6.57;;
31482;SDS011;18103;52.246;8.052;2023-11-21T12:11:05;12.97;;;6.60;;
31482;SDS011;18103;52.246;8.052;2023-11-21T12:13:32;12.67;;;6.57;;
31482;SDS011;18103;52.246;8.052;2023-11-21T12:15:58;12.70;;;7.20;;
31482;SDS011;18103;52.246;8.052;2023-11-21T12:18:26;21.30;;;7.97;;
31482;SDS011;18103;52.246;8.052;2023-11-21T12:20:51;11.57;;;6.50;;
31482;SDS011;18103;52.246;8.052;2023-11-21T12:23:19;12.27;;;6.13;;
31482;SDS011;18103;52.246;8.052;2023-11-21T12:25:45;13.13;;;6.83;;
31482;SDS011;18103;52.246;8.052;2023-11-21T12:28:11;11.93;;;6.47;;
31482;SDS011;18103;52.246;8.052;2023-11-21T12:30:39;11.23;;;6.90;;
31482;SDS011;18103;52.246;8.052;2023-11-21T12:33:04;12.53;;;6.67;;
31482;SDS011;18103;52.246;8.052;2023-11-21T12:35:33;15.53;;;6.07;;
31482;SDS011;18103;52.246;8.052;2023-11-21T12:38:02;14.17;;;6.13;;
31482;SDS011;18103;52.246;8.052;2023-11-21T12:40:29;14.77;;;7.13;;
31482;SDS011;18103;52.246;8.052;2023-11-21T12:42:58;14.83;;;5.90;;
31482;SDS011;18103;52.246;8.052;2023-11-21T12:45:29;10.70;;;5.77;;
31482;SDS011;18103;52.246;8.052;2023-11-21T12:48:00;12.40;;;6.00;;
31482;SDS011;18103;52.246;8.052;2023-11-21T12:50:29;9.80;;;5.87;;
31482;SDS011;18103;52.246;8.052;2023-11-21T12:53:19;9.80;;;5.50;;
31482;SDS011;18103;52.246;8.052;2023-11-21T12:55:44;12.17;;;5.87;;
31482;SDS011;18103;52.246;8.052;2023-11-21T12:58:15;10.27;;;5.17;;
31482;SDS011;18103;52.246;8.052;2023-11-21T13:00:44;8.20;;;5.03;;
31482;SDS011;18103;52.246;8.052;2023-11-21T13:03:12;8.87;;;4.73;;
31482;SDS011;18103;52.246;8.052;2023-11-21T13:05:44;11.77;;;4.87;;
31482;SDS011;18103;52.246;8.052;2023-11-21T13:08:16;9.63;;;5.00;;
31482;SDS011;18103;52.246;8.052;2023-11-21T13:10:45;7.63;;;4.40;;
31482;SDS011;18103;52.246;8.052;2023-11-21T13:13:12;10.00;;;4.93;;
31482;SDS011;18103;52.246;8.052;2023-11-21T13:15:54;13.17;;;4.83;;
31482;SDS011;18103;52.246;8.052;2023-11-21T13:18:26;7.33;;;3.90;;
31482;SDS011;18103;52.246;8.052;2023-11-21T13:20:52;8.37;;;4.03;;
31482;SDS011;18103;52.246;8.052;2023-11-21T13:23:24;8.13;;;4.47;;
31482;SDS011;18103;52.246;8.052;2023-11-21T13:25:50;10.37;;;4.93;;
31482;SDS011;18103;52.246;8.052;2023-11-21T13:28:16;7.93;;;4.53;;
31482;SDS011;18103;52.246;8.052;2023-11-21T13:30:43;8.63;;;4.40;;
31482;SDS011;18103;52.246;8.052;2023-11-21T13:33:09;9.30;;;4.50;;
31482;SDS011;18103;52.246;8.052;2023-11-21T13:35:39;8.83;;;4.50;;
31482;SDS011;18103;52.246;8.052;2023-11-21T13:38:09;12.03;;;5.03;;
31482;SDS011;18103;52.246;8.052;2023-11-21T13:40:39;15.47;;;4.97;;
31482;SDS011;18103;52.246;8.052;2023-11-21T13:43:11;8.53;;;4.20;;
31482;SDS011;18103;52.246;8.052;2023-11-21T13:45:40;10.20;;;4.30;;
31482;SDS011;18103;52.246;8.052;2023-11-21T13:48:10;9.17;;;3.90;;
31482;SDS011;18103;52.246;8.052;2023-11-21T13:50:44;9.90;;;4.60;;
31482;SDS011;18103;52.246;8.052;2023-11-21T13:53:21;7.63;;;4.30;;
31482;SDS011;18103;52.246;8.052;2023-11-21T13:55:53;9.87;;;4.90;;
31482;SDS011;18103;52.246;8.052;2023-11-21T13:58:25;10.90;;;4.63;;
31482;SDS011;18103;52.246;8.052;2023-11-21T14:01:08;11.00;;;4.80;;
31482;SDS011;18103;52.246;8.052;2023-11-21T14:03:54;8.50;;;4.23;;
31482;SDS011;18103;52.246;8.052;2023-11-21T14:06:25;8.87;;;4.77;;
31482;SDS011;18103;52.246;8.052;2023-11-21T14:08:57;9.90;;;4.23;;
31482;SDS011;18103;52.246;8.052;2023-11-21T14:11:23;11.37;;;5.40;;
31482;SDS011;18103;52.246;8.052;2023-11-21T14:13:50;9.80;;;4.33;;
31482;SDS011;18103;52.246;8.052;2023-11-21T14:16:16;8.47;;;5.17;;
31482;SDS011;18103;52.246;8.052;2023-11-21T14:18:42;9.57;;;5.07;;
31482;SDS011;18103;52.246;8.052;2023-11-21T14:21:20;7.53;;;4.33;;
31482;SDS011;18103;52.246;8.052;2023-11-21T14:23:46;7.33;;;4.47;;
31482;SDS011;18103;52.246;8.052;2023-11-21T14:26:14;8.67;;;4.53;;
31482;SDS011;18103;52.246;8.052;2023-11-21T14:28:41;11.93;;;5.43;;
31482;SDS011;18103;52.246;8.052;2023-11-21T14:31:07;10.70;;;4.53;;
31482;SDS011;18103;52.246;8.052;2023-11-21T14:33:38;9.90;;;5.10;;
31482;SDS011;18103;52.246;8.052;2023-11-21T14:36:04;9.37;;;4.97;;
31482;SDS011;18103;52.246;8.052;2023-11-21T14:38:29;14.40;;;4.80;;
31482;SDS011;18103;52.246;8.052;2023-11-21T14:40:55;9.70;;;4.63;;
31482;SDS011;18103;52.246;8.052;2023-11-21T14:43:22;11.90;;;5.33;;
31482;SDS011;18103;52.246;8.052;2023-11-21T14:45:49;6.90;;;4.40;;
31482;SDS011;18103;52.246;8.052;2023-11-21T14:48:15;9.43;;;4.03;;